createdAt,value
2022-12-09T00:00:42.089Z,95248.00
2022-12-09T00:03:09.386Z,95254.56
2022-12-09T00:05:40.723Z,95252.34
2022-12-09T00:08:08.740Z,95254.53
2022-12-09T00:10:35.603Z,95260.38
2022-12-09T00:13:02.334Z,95262.56
2022-12-09T00:15:29.024Z,95264.72
2022-12-09T00:17:57.693Z,95263.34
2022-12-09T00:20:24.340Z,95238.84
2022-12-09T00:22:50.940Z,95253.59
2022-12-09T00:25:17.565Z,95242.50
2022-12-09T00:27:44.334Z,95242.97
2022-12-09T00:30:11.905Z,95246.50
2022-12-09T00:32:39.130Z,95240.59
2022-12-09T00:35:06.042Z,95239.22
2022-12-09T00:37:34.499Z,95245.91
2022-12-09T00:40:01.087Z,95249.09
2022-12-09T00:42:27.695Z,95238.88
2022-12-09T00:44:54.590Z,95238.50
2022-12-09T00:47:21.466Z,95223.50
2022-12-09T00:49:48.221Z,95228.53
2022-12-09T00:52:15.048Z,95229.03
2022-12-09T00:54:42.208Z,95227.66
2022-12-09T00:57:08.871Z,95218.38
2022-12-09T00:59:35.989Z,95211.78
2022-12-09T01:02:03.180Z,95208.75
2022-12-09T01:04:30.525Z,95206.72
2022-12-09T01:06:57.218Z,95202.00
2022-12-09T01:09:24.877Z,95201.00
2022-12-09T01:11:51.782Z,95199.31
2022-12-09T01:14:18.460Z,95193.25
2022-12-09T01:16:45.761Z,95189.91
2022-12-09T01:19:13.682Z,95194.66
2022-12-09T01:21:40.315Z,95196.84
2022-12-09T01:24:09.444Z,95197.41
2022-12-09T01:26:37.223Z,95187.16
2022-12-09T01:29:04.295Z,95184.19
2022-12-09T01:31:30.980Z,95174.16
2022-12-09T01:33:57.593Z,95159.88
2022-12-09T01:36:28.031Z,95150.34
2022-12-09T01:38:56.977Z,95135.09
2022-12-09T01:41:24.101Z,95146.19
2022-12-09T01:44:31.884Z,95139.88
2022-12-09T01:47:01.673Z,95133.38
2022-12-09T01:49:34.955Z,95134.91
2022-12-09T01:52:06.492Z,95120.31
2022-12-09T01:54:34.150Z,95127.25
2022-12-09T01:57:02.456Z,95118.88
2022-12-09T01:59:29.844Z,95109.84
2022-12-09T02:01:59.277Z,95109.34
2022-12-09T02:04:27.724Z,95118.75
2022-12-09T02:06:54.459Z,95113.94
2022-12-09T02:09:23.507Z,95108.06
2022-12-09T02:12:10.034Z,95096.19
2022-12-09T02:14:43.499Z,95088.81
2022-12-09T02:17:31.434Z,95075.09
2022-12-09T02:20:09.405Z,95087.19
2022-12-09T02:22:47.600Z,95099.28
2022-12-09T02:25:28.309Z,95087.41
2022-12-09T02:28:20.618Z,95080.69
2022-12-09T02:30:59.186Z,95092.13
2022-12-09T02:33:52.751Z,95083.59
2022-12-09T02:36:25.235Z,95076.88
2022-12-09T02:38:52.823Z,95078.22
2022-12-09T02:41:24.888Z,95073.38
2022-12-09T02:43:59.894Z,95066.66
2022-12-09T02:46:31.747Z,95067.19
2022-12-09T02:48:59.309Z,95072.91
2022-12-09T02:51:29.286Z,95076.94
2022-12-09T02:53:59.843Z,95067.56
2022-12-09T02:56:27.956Z,95078.63
2022-12-09T02:58:54.700Z,95070.09
2022-12-09T03:01:40.982Z,95065.06
2022-12-09T03:04:08.568Z,95055.84
2022-12-09T03:06:42.067Z,95050.84
2022-12-09T03:09:12.039Z,95050.19
2022-12-09T03:11:39.917Z,95044.50
2022-12-09T03:14:11.945Z,95037.44
2022-12-09T03:16:50.061Z,95029.75
2022-12-09T03:19:26.207Z,95017.66
2022-12-09T03:21:57.305Z,95009.28
2022-12-09T03:25:05.102Z,95001.25
2022-12-09T03:27:39.456Z,94993.72
2022-12-09T03:30:08.952Z,94981.50
2022-12-09T03:32:38.473Z,94990.72
2022-12-09T03:35:10.021Z,94990.06
2022-12-09T03:37:38.824Z,94992.06
2022-12-09T03:40:13.639Z,94990.56
2022-12-09T03:42:47.326Z,94987.22
2022-12-09T03:45:18.377Z,94989.41
2022-12-09T03:47:45.299Z,94986.38
2022-12-09T03:50:14.130Z,94982.06
2022-12-09T03:52:45.234Z,94976.69
2022-12-09T03:55:30.636Z,94979.03
2022-12-09T03:57:58.464Z,94995.94
2022-12-09T04:00:25.807Z,95004.13
2022-12-09T04:02:54.277Z,95014.19
2022-12-09T04:05:20.995Z,95019.53
2022-12-09T04:07:47.966Z,95003.00
2022-12-09T04:10:14.921Z,94991.78
2022-12-09T04:12:42.237Z,94989.09
2022-12-09T04:15:10.317Z,94986.56
2022-12-09T04:17:37.645Z,94975.19
2022-12-09T04:20:05.930Z,94979.88
2022-12-09T04:22:34.223Z,94976.69
2022-12-09T04:25:00.896Z,94968.66
2022-12-09T04:27:27.623Z,94968.00
2022-12-09T04:29:54.194Z,94971.66
2022-12-09T04:32:22.185Z,94969.16
2022-12-09T04:34:48.882Z,94963.94
2022-12-09T04:37:15.559Z,94967.81
2022-12-09T04:39:42.258Z,94971.47
2022-12-09T04:42:09.881Z,94961.75
2022-12-09T04:44:36.860Z,94961.09
2022-12-09T04:47:04.695Z,94943.53
2022-12-09T04:49:31.696Z,94943.53
2022-12-09T04:51:58.835Z,94929.47
2022-12-09T04:54:26.211Z,94910.59
2022-12-09T04:56:52.869Z,94908.22
2022-12-09T04:59:19.699Z,94908.91
2022-12-09T05:01:47.174Z,94919.44
2022-12-09T05:04:14.077Z,94918.78
2022-12-09T05:06:40.937Z,94914.41
2022-12-09T05:09:11.505Z,94910.25
2022-12-09T05:11:38.755Z,94916.59
2022-12-09T05:14:05.632Z,94911.41
2022-12-09T05:16:33.084Z,94909.75
2022-12-09T05:19:00.633Z,94899.53
2022-12-09T05:21:28.103Z,94899.72
2022-12-09T05:23:55.829Z,94900.53
2022-12-09T05:26:23.557Z,94901.38
2022-12-09T05:28:51.789Z,94894.34
2022-12-09T05:31:20.942Z,94899.03
2022-12-09T05:33:48.877Z,94897.69
2022-12-09T05:36:18.932Z,94900.19
2022-12-09T05:38:48.297Z,94893.19
2022-12-09T05:41:15.347Z,94892.50
2022-12-09T05:43:42.301Z,94890.81
2022-12-09T05:46:10.753Z,94896.38
2022-12-09T05:48:37.544Z,94894.69
2022-12-09T05:51:16.172Z,94896.53
2022-12-09T05:53:43.834Z,94877.44
2022-12-09T05:56:10.827Z,94883.47
2022-12-09T05:58:38.059Z,94876.47
2022-12-09T06:01:06.353Z,94885.47
2022-12-09T06:03:33.527Z,94885.63
2022-12-09T06:06:08.408Z,94875.13
2022-12-09T06:08:36.320Z,94877.97
2022-12-09T06:11:03.268Z,94872.72
2022-12-09T06:13:30.363Z,94878.25
2022-12-09T06:16:03.581Z,94874.91
2022-12-09T06:18:30.506Z,94873.25
2022-12-09T06:20:57.410Z,94880.41
2022-12-09T06:23:24.232Z,94882.25
2022-12-09T06:25:51.334Z,94869.22
2022-12-09T06:28:19.681Z,94875.56
2022-12-09T06:30:47.198Z,94880.09
2022-12-09T06:33:37.276Z,94848.16
2022-12-09T06:36:02.201Z,94853.00
2022-12-09T06:38:28.906Z,94839.97
2022-12-09T06:40:56.037Z,94845.47
2022-12-09T06:43:23.027Z,94847.47
2022-12-09T06:45:49.752Z,94847.63
2022-12-09T06:48:16.828Z,94841.63
2022-12-09T06:50:44.771Z,94847.94
2022-12-09T06:53:11.472Z,94845.63
2022-12-09T06:55:38.463Z,94836.94
2022-12-09T06:58:05.476Z,94838.94
2022-12-09T07:00:33.460Z,94840.09
2022-12-09T07:03:00.459Z,94840.28
2022-12-09T07:05:27.813Z,94834.25
2022-12-09T07:07:55.454Z,94833.75
2022-12-09T07:10:22.313Z,94831.06
2022-12-09T07:12:48.964Z,94838.41
2022-12-09T07:15:16.437Z,94827.06
2022-12-09T07:17:43.233Z,94835.22
2022-12-09T07:20:10.312Z,94818.53
2022-12-09T07:22:37.157Z,94816.00
2022-12-09T07:25:04.774Z,94810.81
2022-12-09T07:27:32.214Z,94812.66
2022-12-09T07:29:59.756Z,94812.81
2022-12-09T07:32:26.778Z,94810.31
2022-12-09T07:34:54.105Z,94815.84
2022-12-09T07:37:21.953Z,94814.31
2022-12-09T07:39:49.028Z,94813.47
2022-12-09T07:42:15.721Z,94808.28
2022-12-09T07:44:52.249Z,94804.41
2022-12-09T07:47:19.262Z,94823.78
2022-12-09T07:49:46.812Z,94822.13
2022-12-09T07:52:14.052Z,94819.44
2022-12-09T07:54:41.355Z,94824.63
2022-12-09T07:57:08.743Z,94822.47
2022-12-09T07:59:36.026Z,94823.66
2022-12-09T08:02:06.600Z,94828.19
2022-12-09T08:04:35.517Z,94830.06
2022-12-09T08:07:02.659Z,94825.38
2022-12-09T08:09:29.586Z,94825.41
2022-12-09T08:11:56.913Z,94827.94
2022-12-09T08:14:24.571Z,94834.09
2022-12-09T08:16:51.557Z,94841.84
2022-12-09T08:19:18.907Z,94846.00
2022-12-09T08:21:52.857Z,94851.03
2022-12-09T08:24:21.153Z,94855.00
2022-12-09T08:26:50.580Z,94857.34
2022-12-09T08:29:17.527Z,94863.84
2022-12-09T08:31:44.626Z,94860.03
2022-12-09T08:34:14.404Z,94861.97
2022-12-09T08:36:42.453Z,94859.75
2022-12-09T08:39:11.651Z,94852.53
2022-12-09T08:41:39.376Z,94851.47
2022-12-09T08:44:11.228Z,94844.78
2022-12-09T08:46:40.128Z,94852.59
2022-12-09T08:49:07.600Z,94863.94
2022-12-09T08:51:35.166Z,94855.84
2022-12-09T08:54:04.274Z,94845.91
2022-12-09T08:56:32.078Z,94863.97
2022-12-09T08:58:58.969Z,94858.56
2022-12-09T09:01:32.682Z,94859.34
2022-12-09T09:04:01.801Z,94855.78
2022-12-09T09:06:29.446Z,94854.88
2022-12-09T09:08:58.218Z,94864.72
2022-12-09T09:11:26.061Z,94866.69
2022-12-09T09:13:53.153Z,94871.16
2022-12-09T09:16:23.652Z,94869.41
2022-12-09T09:18:51.678Z,94870.56
2022-12-09T09:21:21.752Z,94875.00
2022-12-09T09:23:48.785Z,94877.81
2022-12-09T09:26:21.407Z,94881.63
2022-12-09T09:28:48.806Z,94875.91
2022-12-09T09:31:19.233Z,94888.78
2022-12-09T09:33:47.084Z,94891.38
2022-12-09T09:36:21.037Z,94888.16
2022-12-09T09:38:53.293Z,94871.19
2022-12-09T09:41:42.896Z,94861.28
2022-12-09T09:44:28.844Z,94858.03
2022-12-09T09:46:56.925Z,94855.00
2022-12-09T09:49:50.901Z,94857.59
2022-12-09T09:52:20.480Z,94851.66
2022-12-09T09:54:47.312Z,94855.63
2022-12-09T09:57:26.267Z,94846.00
2022-12-09T10:00:16.228Z,94848.16
2022-12-09T10:02:46.313Z,94839.72
2022-12-09T10:05:24.467Z,94846.38
2022-12-09T10:08:19.901Z,94846.66
2022-12-09T10:10:56.628Z,94846.09
2022-12-09T10:13:42.214Z,94840.34
2022-12-09T10:16:23.419Z,94843.50
2022-12-09T10:19:06.017Z,94840.22
2022-12-09T10:21:40.282Z,94839.88
2022-12-09T10:24:21.627Z,94838.47
2022-12-09T10:26:57.719Z,94839.75
2022-12-09T10:29:39.602Z,94838.34
2022-12-09T10:32:13.042Z,94831.75
2022-12-09T10:34:39.953Z,94830.56
2022-12-09T10:37:29.085Z,94821.25
2022-12-09T10:40:04.165Z,94803.06
2022-12-09T10:43:05.708Z,94816.19
2022-12-09T10:46:08.026Z,94824.88
2022-12-09T10:48:21.847Z,94829.69
2022-12-09T10:50:55.425Z,94826.81
2022-12-09T10:53:22.753Z,94826.22
2022-12-09T10:55:52.081Z,94819.63
2022-12-09T10:58:25.747Z,94807.66
2022-12-09T11:01:04.602Z,94810.81
2022-12-09T11:03:48.963Z,94807.69
2022-12-09T11:06:18.677Z,94812.72
2022-12-09T11:08:57.815Z,94813.16
2022-12-09T11:11:46.325Z,94808.41
2022-12-09T11:14:38.947Z,94799.94
2022-12-09T11:17:27.560Z,94789.34
2022-12-09T11:19:56.005Z,94784.03
2022-12-09T11:22:40.301Z,94777.84
2022-12-09T11:25:17.689Z,94789.66
2022-12-09T11:27:55.345Z,94785.75
2022-12-09T11:30:30.698Z,94774.81
2022-12-09T11:33:16.382Z,94761.34
2022-12-09T11:35:44.930Z,94754.09
2022-12-09T11:38:40.151Z,94763.19
2022-12-09T11:41:13.394Z,94763.38
2022-12-09T11:43:55.684Z,94748.63
2022-12-09T11:46:25.532Z,94741.34
2022-12-09T11:49:01.888Z,94739.44
2022-12-09T11:51:35.258Z,94727.78
2022-12-09T11:54:42.741Z,94723.16
2022-12-09T11:57:21.665Z,94718.94
2022-12-09T11:59:53.760Z,94712.88
2022-12-09T12:02:43.822Z,94700.81
2022-12-09T12:05:25.587Z,94702.16
2022-12-09T12:08:07.176Z,94703.97
2022-12-09T12:10:47.045Z,94688.16
2022-12-09T12:13:23.651Z,94691.78
2022-12-09T12:16:05.741Z,94686.34
2022-12-09T12:18:39.638Z,94687.28
2022-12-09T12:21:24.832Z,94682.84
2022-12-09T12:24:15.832Z,94679.06
2022-12-09T12:26:52.924Z,94671.09
2022-12-09T12:29:47.434Z,94668.00
2022-12-09T12:32:35.042Z,94664.19
2022-12-09T12:35:39.114Z,94664.97
2022-12-09T12:38:33.148Z,94657.84
2022-12-09T12:41:10.051Z,94657.09
2022-12-09T12:44:10.364Z,94649.97
2022-12-09T12:47:02.809Z,94643.69
2022-12-09T12:49:52.416Z,94643.75
2022-12-09T12:52:54.973Z,94644.91
2022-12-09T12:55:37.554Z,94643.97
2022-12-09T12:58:11.448Z,94631.66
2022-12-09T13:01:16.959Z,94637.97
2022-12-09T13:04:31.130Z,94621.13
2022-12-09T13:07:04.310Z,94614.00
2022-12-09T13:10:01.474Z,94615.72
2022-12-09T13:12:51.970Z,94610.25
2022-12-09T13:15:21.677Z,94611.00
2022-12-09T13:17:49.545Z,94601.84
2022-12-09T13:20:52.736Z,94599.88
2022-12-09T13:23:45.302Z,94596.25
2022-12-09T13:26:21.130Z,94596.63
2022-12-09T13:29:17.360Z,94591.97
2022-12-09T13:32:14.465Z,94589.03
2022-12-09T13:34:42.135Z,94594.09
2022-12-09T13:37:34.037Z,94597.97
2022-12-09T13:40:01.835Z,94591.25
2022-12-09T13:42:47.635Z,94599.84
2022-12-09T13:45:26.294Z,94582.81
2022-12-09T13:47:54.464Z,94593.53
2022-12-09T13:50:39.293Z,94597.41
2022-12-09T13:53:21.540Z,94599.78
2022-12-09T13:55:57.001Z,94600.16
2022-12-09T13:59:12.294Z,94598.03
2022-12-09T14:01:44.541Z,94598.56
2022-12-09T14:04:23.353Z,94613.16
2022-12-09T14:06:56.049Z,94606.50
2022-12-09T14:09:43.848Z,94610.34
2022-12-09T14:12:13.685Z,94609.88
2022-12-09T14:14:43.257Z,94607.56
2022-12-09T14:17:38.972Z,94606.25
2022-12-09T14:20:21.273Z,94598.53
2022-12-09T14:23:06.568Z,94607.78
2022-12-09T14:25:35.777Z,94608.97
2022-12-09T14:28:16.551Z,94602.09
2022-12-09T14:31:03.395Z,94606.97
2022-12-09T14:33:40.944Z,94605.47
2022-12-09T14:36:13.543Z,94609.16
2022-12-09T14:39:23.020Z,94609.34
2022-12-09T14:41:58.642Z,94600.81
2022-12-09T14:44:41.319Z,94611.91
2022-12-09T14:47:22.759Z,94597.31
2022-12-09T14:49:51.601Z,94592.38
2022-12-09T14:52:31.484Z,94594.41
2022-12-09T14:55:01.232Z,94602.31
2022-12-09T14:57:32.915Z,94609.84
2022-12-09T14:59:59.662Z,94606.69
2022-12-09T15:02:30.413Z,94608.88
2022-12-09T15:04:59.968Z,94604.50
2022-12-09T15:07:28.955Z,94615.69
2022-12-09T15:10:04.695Z,94616.91
2022-12-09T15:12:35.484Z,94619.88
2022-12-09T15:15:07.000Z,94618.53
2022-12-09T15:17:43.220Z,94619.19
2022-12-09T15:20:43.049Z,94627.72
2022-12-09T15:23:23.101Z,94628.38
2022-12-09T15:26:01.099Z,94635.75
2022-12-09T15:28:32.019Z,94652.28
2022-12-09T15:31:07.658Z,94649.09
2022-12-09T15:33:46.022Z,94645.59
2022-12-09T15:36:28.834Z,94642.09
2022-12-09T15:39:05.813Z,94649.28
2022-12-09T15:42:09.420Z,94653.78
2022-12-09T15:45:01.285Z,94664.47
2022-12-09T15:47:40.825Z,94651.47
2022-12-09T15:50:22.209Z,94642.25
2022-12-09T15:52:53.158Z,94647.06
2022-12-09T15:55:23.530Z,94645.38
2022-12-09T15:57:52.702Z,94647.72
2022-12-09T16:00:22.846Z,94640.34
2022-12-09T16:02:49.932Z,94646.78
2022-12-09T16:05:23.422Z,94641.41
2022-12-09T16:07:59.927Z,94648.41
2022-12-09T16:10:28.335Z,94637.03
2022-12-09T16:13:06.472Z,94631.84
2022-12-09T16:15:47.072Z,94650.81
2022-12-09T16:18:20.277Z,94652.28
2022-12-09T16:20:59.587Z,94640.91
2022-12-09T16:23:26.784Z,94649.75
2022-12-09T16:26:03.176Z,94647.56
2022-12-09T16:28:33.200Z,94653.31
2022-12-09T16:31:01.680Z,94643.97
2022-12-09T16:33:31.305Z,94650.75
2022-12-09T16:36:02.187Z,94649.56
2022-12-09T16:38:31.992Z,94652.84
2022-12-09T16:41:02.609Z,94644.66
2022-12-09T16:43:30.551Z,94647.44
2022-12-09T16:46:02.600Z,94647.91
2022-12-09T16:48:30.277Z,94655.53
2022-12-09T16:51:14.423Z,94657.94
2022-12-09T16:53:49.075Z,94665.59
2022-12-09T16:56:24.767Z,94665.19
2022-12-09T16:58:51.758Z,94665.34
2022-12-09T17:01:20.362Z,94668.50
2022-12-09T17:03:52.742Z,94681.34
2022-12-09T17:06:20.676Z,94683.69
2022-12-09T17:08:47.732Z,94694.88
2022-12-09T17:11:14.625Z,94694.28
2022-12-09T17:13:42.369Z,94700.50
2022-12-09T17:16:09.361Z,94698.06
2022-12-09T17:18:36.058Z,94696.47
2022-12-09T17:21:13.068Z,94704.66
2022-12-09T17:23:41.881Z,94709.22
2022-12-09T17:26:10.773Z,94714.75
2022-12-09T17:28:38.143Z,94717.47
2022-12-09T17:31:14.594Z,94724.69
2022-12-09T17:33:43.836Z,94729.25
2022-12-09T17:36:11.727Z,94732.97
2022-12-09T17:38:38.679Z,94731.34
2022-12-09T17:41:08.829Z,94731.69
2022-12-09T17:43:36.243Z,94743.28
2022-12-09T17:46:05.005Z,94749.66
2022-12-09T17:48:33.802Z,94758.81
2022-12-09T17:51:08.300Z,94756.38
2022-12-09T17:53:36.700Z,94761.22
2022-12-09T17:56:11.539Z,94769.44
2022-12-09T17:58:38.173Z,94770.81
2022-12-09T18:01:05.517Z,94777.34
2022-12-09T18:03:54.962Z,94778.56
2022-12-09T18:06:19.494Z,94779.72
2022-12-09T18:08:46.448Z,94794.25
2022-12-09T18:11:15.289Z,94793.78
2022-12-09T18:13:41.848Z,94797.00
2022-12-09T18:16:11.974Z,94795.47
2022-12-09T18:18:39.457Z,94792.34
2022-12-09T18:21:10.610Z,94788.50
2022-12-09T18:23:43.233Z,94795.84
2022-12-09T18:26:13.154Z,94799.19
2022-12-09T18:28:40.301Z,94805.22
2022-12-09T18:31:11.883Z,94816.41
2022-12-09T18:33:39.195Z,94828.00
2022-12-09T18:36:07.698Z,94832.03
2022-12-09T18:38:36.542Z,94834.19
2022-12-09T18:41:04.031Z,94828.53
2022-12-09T18:43:37.169Z,94813.84
2022-12-09T18:46:10.813Z,94815.34
2022-12-09T18:48:38.078Z,94811.84
2022-12-09T18:51:05.269Z,94821.88
2022-12-09T18:53:31.817Z,94839.41
2022-12-09T18:55:58.399Z,94843.63
2022-12-09T18:58:49.610Z,94839.78
2022-12-09T19:01:14.418Z,94834.09
2022-12-09T19:03:42.388Z,94823.41
2022-12-09T19:06:27.298Z,94827.41
2022-12-09T19:09:02.166Z,94820.91
2022-12-09T19:11:31.397Z,94829.59
2022-12-09T19:13:58.554Z,94835.59
2022-12-09T19:16:26.045Z,94828.41
2022-12-09T19:18:56.101Z,94827.25
2022-12-09T19:21:24.166Z,94828.59
2022-12-09T19:23:51.426Z,94828.59
2022-12-09T19:26:25.028Z,94835.94
2022-12-09T19:28:53.951Z,94839.13
2022-12-09T19:31:33.528Z,94826.59
2022-12-09T19:34:02.921Z,94824.59
2022-12-09T19:36:30.741Z,94835.66
2022-12-09T19:38:58.166Z,94841.84
2022-12-09T19:41:24.796Z,94838.81
2022-12-09T19:43:55.519Z,94846.50
2022-12-09T19:46:22.507Z,94850.69
2022-12-09T19:48:50.012Z,94854.69
2022-12-09T19:51:17.732Z,94864.25
2022-12-09T19:53:44.745Z,94863.22
2022-12-09T19:56:16.964Z,94870.09
2022-12-09T19:58:43.910Z,94877.78
2022-12-09T20:01:18.871Z,94876.97
2022-12-09T20:03:49.029Z,94879.13
2022-12-09T20:06:18.150Z,94891.16
2022-12-09T20:08:45.678Z,94877.78
2022-12-09T20:11:16.204Z,94888.81
2022-12-09T20:13:43.705Z,94892.00
2022-12-09T20:16:14.701Z,94891.84
2022-12-09T20:18:41.820Z,94882.47
2022-12-09T20:21:11.195Z,94886.47
2022-12-09T20:23:39.583Z,94889.81
2022-12-09T20:26:09.035Z,94899.34
2022-12-09T20:28:36.580Z,94894.66
2022-12-09T20:31:04.840Z,94891.81
2022-12-09T20:33:31.468Z,94901.53
2022-12-09T20:36:06.859Z,94896.34
2022-12-09T20:38:34.911Z,94902.03
2022-12-09T20:41:06.810Z,94892.81
2022-12-09T20:43:39.297Z,94896.84
2022-12-09T20:46:08.147Z,94890.66
2022-12-09T20:48:35.538Z,94900.34
2022-12-09T20:51:07.392Z,94898.88
2022-12-09T20:53:36.796Z,94894.03
2022-12-09T20:56:03.917Z,94890.69
2022-12-09T20:58:30.558Z,94885.97
2022-12-09T21:01:05.407Z,94883.28
2022-12-09T21:03:34.310Z,94883.81
2022-12-09T21:06:01.354Z,94887.66
2022-12-09T21:08:31.474Z,94877.44
2022-12-09T21:11:07.459Z,94860.56
2022-12-09T21:13:39.519Z,94873.94
2022-12-09T21:16:12.253Z,94882.44
2022-12-09T21:18:39.705Z,94885.59
2022-12-09T21:21:06.272Z,94878.09
2022-12-09T21:23:37.013Z,94882.09
2022-12-09T21:26:11.538Z,94879.06
2022-12-09T21:28:39.975Z,94883.06
2022-12-09T21:31:14.338Z,94880.91
2022-12-09T21:33:42.662Z,94878.69
2022-12-09T21:36:13.104Z,94875.69
2022-12-09T21:38:41.149Z,94884.34
2022-12-09T21:41:12.053Z,94870.81
2022-12-09T21:43:39.123Z,94865.09
2022-12-09T21:46:08.401Z,94868.28
2022-12-09T21:48:36.159Z,94858.91
2022-12-09T21:51:02.872Z,94856.72
2022-12-09T21:53:30.141Z,94860.19
2022-12-09T21:56:08.829Z,94860.50
2022-12-09T22:01:10.031Z,94861.63
2022-12-09T22:03:37.397Z,94864.94
2022-12-09T22:06:04.433Z,94862.75
2022-12-09T22:08:31.657Z,94855.22
2022-12-09T22:11:00.152Z,94864.56
2022-12-09T22:13:27.160Z,94867.84
2022-12-09T22:15:53.921Z,94869.00
2022-12-09T22:18:20.622Z,94872.16
2022-12-09T22:21:23.025Z,94860.44
2022-12-09T22:23:34.387Z,94859.91
2022-12-09T22:26:14.065Z,94860.50
2022-12-09T22:28:40.780Z,94854.78
2022-12-09T22:31:12.937Z,94842.75
2022-12-09T22:33:39.781Z,94836.94
2022-12-09T22:36:08.646Z,94838.22
2022-12-09T22:38:36.502Z,94830.53
2022-12-09T22:41:15.037Z,94833.50
2022-12-09T22:43:42.402Z,94841.84
2022-12-09T22:46:14.668Z,94844.81
2022-12-09T22:48:42.856Z,94843.28
2022-12-09T22:51:15.780Z,94838.25
2022-12-09T22:53:42.534Z,94840.41
2022-12-09T22:56:10.626Z,94835.53
2022-12-09T22:58:37.741Z,94834.03
2022-12-09T23:01:18.814Z,94817.78
2022-12-09T23:03:45.620Z,94830.44
2022-12-09T23:06:15.172Z,94825.25
2022-12-09T23:08:43.504Z,94823.75
2022-12-09T23:11:13.033Z,94824.91
2022-12-09T23:13:41.394Z,94830.53
2022-12-09T23:16:12.315Z,94837.84
2022-12-09T23:18:39.440Z,94840.81
2022-12-09T23:21:12.105Z,94839.28
2022-12-09T23:23:39.434Z,94837.75
2022-12-09T23:26:08.423Z,94851.38
2022-12-09T23:28:37.320Z,94847.34
2022-12-09T23:31:05.716Z,94845.69
2022-12-09T23:33:33.681Z,94838.00
2022-12-09T23:36:09.177Z,94855.00
2022-12-09T23:38:36.370Z,94849.13
2022-12-09T23:41:04.186Z,94861.75
2022-12-09T23:43:31.589Z,94865.41
2022-12-09T23:46:02.131Z,94859.38
2022-12-09T23:48:30.248Z,94854.38
2022-12-09T23:50:57.165Z,94865.19
2022-12-09T23:53:23.751Z,94858.34
2022-12-09T23:55:50.984Z,94859.31
2022-12-09T23:58:17.751Z,94860.47
